Time;durP1;ratioP1;P1;durP2;ratioP2;P2;SDS_P1;SDS_P2;PMS_P1;PMS_P2;Temp;Humidity;BMP_temperature;BMP_pressure;BME280_temperature;BME280_humidity;BME280_pressure;Samples;Min_cycle;Max_cycle;Signal;HPM_P1;HPM_P2
2022/01/17 00:02:25;;;;;;;7.17;6.47;;;4.30;59.40;;;;;;5010470;28;20988;-84
2022/01/17 00:04:51;;;;;;;7.97;7.17;;;4.40;58.60;;;;;;5010434;28;20230;-83
2022/01/17 00:07:17;;;;;;;9.00;8.10;;;4.40;58.80;;;;;;5010350;28;20448;-83
2022/01/17 00:09:42;;;;;;;8.43;7.37;;;4.40;59.10;;;;;;5010322;28;20181;-84
2022/01/17 00:12:09;;;;;;;8.83;8.00;;;4.40;59.10;;;;;;5009867;28;20524;-84
2022/01/17 00:14:39;;;;;;;8.83;7.93;;;4.40;59.60;;;;;;5010253;28;20515;-85
2022/01/17 00:19:42;;;;;;;8.63;7.67;;;4.40;59.70;;;;;;5011656;28;20510;-84
2022/01/17 00:22:09;;;;;;;8.47;7.67;;;4.40;59.40;;;;;;5010182;28;20474;-83
2022/01/17 00:24:35;;;;;;;7.93;7.00;;;4.40;59.50;;;;;;5011666;28;20475;-84
2022/01/17 00:27:00;;;;;;;8.83;7.90;;;4.40;59.20;;;;;;5009962;28;20413;-84
2022/01/17 00:29:27;;;;;;;6.53;5.73;;;4.40;59.40;;;;;;5010218;28;20181;-85
2022/01/17 00:31:53;;;;;;;7.73;6.63;;;4.30;59.50;;;;;;5009271;28;20177;-84
2022/01/17 00:34:19;;;;;;;7.70;6.20;;;4.40;59.10;;;;;;5010860;28;20769;-85
2022/01/17 00:36:44;;;;;;;8.13;6.87;;;4.50;59.10;;;;;;5009539;28;20495;-84
2022/01/17 00:39:10;;;;;;;7.93;6.20;;;4.50;58.70;;;;;;5009316;28;20611;-84
2022/01/17 00:41:36;;;;;;;7.40;6.70;;;4.50;58.50;;;;;;5008843;28;20177;-84
2022/01/17 00:44:03;;;;;;;7.03;6.43;;;4.50;58.60;;;;;;5009089;28;20595;-84
2022/01/17 00:46:29;;;;;;;7.67;6.97;;;4.50;59.00;;;;;;5009019;28;20185;-83
2022/01/17 00:48:55;;;;;;;7.83;7.03;;;4.50;59.10;;;;;;5009347;28;20915;-84
2022/01/17 00:51:21;;;;;;;7.90;7.20;;;4.50;59.10;;;;;;5010373;28;20508;-84
2022/01/17 00:53:48;;;;;;;8.07;7.00;;;4.50;59.10;;;;;;5010484;28;20193;-83
2022/01/17 00:56:14;;;;;;;7.60;6.80;;;4.50;59.40;;;;;;5010209;28;20428;-83
2022/01/17 00:58:40;;;;;;;8.97;7.20;;;4.40;59.30;;;;;;5010482;28;20416;-83
2022/01/17 01:01:06;;;;;;;8.20;7.50;;;4.50;59.40;;;;;;5010614;28;20461;-85
2022/01/17 01:03:31;;;;;;;7.20;6.50;;;4.40;59.50;;;;;;5011865;28;20446;-84
2022/01/17 01:05:57;;;;;;;8.40;7.57;;;4.40;59.40;;;;;;5009085;28;20350;-84
2022/01/17 01:08:23;;;;;;;11.23;8.47;;;4.30;59.80;;;;;;5008565;28;20172;-84
2022/01/17 01:10:48;;;;;;;9.70;8.70;;;4.30;60.10;;;;;;5009105;28;20209;-85
2022/01/17 01:13:17;;;;;;;8.87;7.97;;;4.30;60.20;;;;;;5009644;28;20180;-84
2022/01/17 01:18:29;;;;;;;9.57;8.73;;;4.30;61.70;;;;;;5010011;28;20449;-84
2022/01/17 01:28:55;;;;;;;12.20;10.93;;;4.20;61.90;;;;;;5009726;28;20419;-84
2022/01/17 01:31:32;;;;;;;13.70;12.30;;;4.10;61.80;;;;;;5009048;28;20420;-84
2022/01/17 01:34:03;;;;;;;15.07;12.30;;;4.10;61.80;;;;;;5008245;28;20546;-84
2022/01/17 01:36:30;;;;;;;12.77;11.30;;;4.20;62.10;;;;;;4992428;28;20425;-84
2022/01/17 01:38:56;;;;;;;14.90;11.57;;;4.20;61.90;;;;;;5008206;28;20537;-83
2022/01/17 01:41:22;;;;;;;12.43;11.20;;;4.10;61.80;;;;;;5008685;28;20416;-83
2022/01/17 01:43:47;;;;;;;15.23;10.70;;;4.00;62.60;;;;;;5009262;28;20561;-84
2022/01/17 01:46:17;;;;;;;13.27;11.87;;;4.00;63.00;;;;;;5009131;28;20169;-84
2022/01/17 01:48:43;;;;;;;12.67;11.40;;;4.10;62.60;;;;;;5010104;28;20192;-84
2022/01/17 01:51:09;;;;;;;13.00;11.73;;;4.10;62.60;;;;;;5010617;28;20408;-84
2022/01/17 01:53:36;;;;;;;11.77;10.47;;;4.00;62.70;;;;;;5008523;28;20193;-84
2022/01/17 01:56:02;;;;;;;12.23;10.93;;;4.00;63.60;;;;;;5008769;28;20676;-84
2022/01/17 01:58:28;;;;;;;12.47;11.17;;;4.10;63.40;;;;;;5009774;28;20868;-84
2022/01/17 02:00:55;;;;;;;10.63;9.57;;;4.10;63.20;;;;;;5008731;28;20555;-84
2022/01/17 02:03:22;;;;;;;11.67;10.13;;;4.10;63.50;;;;;;5008436;28;20204;-83
2022/01/17 02:05:48;;;;;;;13.13;11.80;;;4.10;63.00;;;;;;5008414;28;20864;-84
2022/01/17 02:08:15;;;;;;;12.47;11.33;;;4.00;62.80;;;;;;5009144;28;20419;-84
2022/01/17 02:10:41;;;;;;;11.70;10.43;;;4.10;63.10;;;;;;5010194;28;20438;-83
2022/01/17 02:13:07;;;;;;;10.20;9.20;;;4.10;63.40;;;;;;5008800;28;21276;-84
2022/01/17 02:15:32;;;;;;;11.10;10.00;;;4.10;62.70;;;;;;5008766;28;20456;-84
2022/01/17 02:17:58;;;;;;;12.93;10.17;;;4.10;62.60;;;;;;5008151;28;20532;-84
2022/01/17 02:20:43;;;;;;;11.93;10.43;;;4.10;63.00;;;;;;5008807;28;20517;-85
2022/01/17 02:23:10;;;;;;;14.00;11.00;;;4.10;62.50;;;;;;5008658;28;20418;-84
2022/01/17 02:25:36;;;;;;;13.13;11.80;;;4.20;63.00;;;;;;5008048;28;20412;-84
2022/01/17 02:28:02;;;;;;;12.53;11.20;;;4.10;62.30;;;;;;5007726;28;20467;-84
2022/01/17 02:30:32;;;;;;;13.67;12.27;;;4.10;62.10;;;;;;5007969;28;20181;-84
2022/01/17 02:33:02;;;;;;;13.27;11.27;;;4.10;63.20;;;;;;5007411;28;20412;-85
2022/01/17 02:35:29;;;;;;;12.03;10.83;;;4.20;63.00;;;;;;5008361;28;20421;-84
2022/01/17 02:37:56;;;;;;;10.83;9.73;;;4.10;62.70;;;;;;5007317;28;20486;-84
2022/01/17 02:40:22;;;;;;;11.47;10.27;;;4.10;62.70;;;;;;5007739;28;20467;-84
2022/01/17 02:43:00;;;;;;;11.37;10.17;;;4.20;63.70;;;;;;5007803;28;20918;-84
2022/01/17 02:45:32;;;;;;;13.50;11.30;;;4.10;62.30;;;;;;5007375;28;20180;-84
2022/01/17 02:48:09;;;;;;;12.70;10.80;;;4.10;62.90;;;;;;5006967;28;20780;-84
2022/01/17 02:50:36;;;;;;;12.60;10.30;;;4.20;62.20;;;;;;5007699;28;20424;-85
2022/01/17 02:53:08;;;;;;;11.27;10.00;;;4.10;62.70;;;;;;5006529;28;20428;-85
2022/01/17 02:55:33;;;;;;;12.47;11.17;;;4.10;62.40;;;;;;5006840;28;20509;-84
2022/01/17 02:57:59;;;;;;;9.83;8.03;;;4.10;62.90;;;;;;5007196;28;20516;-85
2022/01/17 03:00:25;;;;;;;12.67;6.50;;;4.20;63.40;;;;;;5006805;28;20205;-85
2022/01/17 03:02:51;;;;;;;10.90;9.80;;;4.10;64.00;;;;;;5007350;28;20439;-85
2022/01/17 03:05:17;;;;;;;11.53;10.33;;;4.20;63.50;;;;;;5010317;28;20197;-85
2022/01/17 03:07:44;;;;;;;11.20;10.00;;;4.20;63.50;;;;;;5009916;28;20451;-85
2022/01/17 03:10:19;;;;;;;11.10;9.80;;;4.20;64.50;;;;;;5010205;28;20420;-84
2022/01/17 03:12:44;;;;;;;12.50;11.07;;;4.20;63.90;;;;;;5010798;28;20944;-84
2022/01/17 03:15:12;;;;;;;10.47;8.53;;;4.20;64.40;;;;;;5010353;28;20419;-84
2022/01/17 03:17:38;;;;;;;11.63;10.50;;;4.20;63.60;;;;;;5010706;28;20231;-84
2022/01/17 03:20:04;;;;;;;13.37;10.17;;;4.20;63.60;;;;;;5010211;28;20980;-84
2022/01/17 03:22:31;;;;;;;12.50;9.40;;;4.20;64.10;;;;;;5010281;28;20631;-85
2022/01/17 03:24:57;;;;;;;10.93;9.83;;;4.20;63.90;;;;;;5009684;28;20425;-85
2022/01/17 03:27:23;;;;;;;9.93;9.00;;;4.20;63.50;;;;;;5010669;28;20849;-85
2022/01/17 03:29:48;;;;;;;12.73;9.97;;;4.10;64.40;;;;;;5010348;28;20269;-84
2022/01/17 03:32:14;;;;;;;11.20;10.10;;;4.20;64.30;;;;;;5010676;28;20181;-85
2022/01/17 03:34:40;;;;;;;12.33;8.87;;;4.20;64.60;;;;;;5010990;28;20073;-84
2022/01/17 03:37:05;;;;;;;11.37;10.10;;;4.20;65.00;;;;;;5009808;28;20177;-84
2022/01/17 03:39:31;;;;;;;11.87;10.63;;;4.20;65.40;;;;;;5010667;28;20213;-84
2022/01/17 03:41:57;;;;;;;12.00;10.70;;;4.20;65.40;;;;;;5009777;28;20774;-85
2022/01/17 03:44:23;;;;;;;12.53;10.30;;;4.20;65.60;;;;;;5010395;28;20426;-84
2022/01/17 03:46:48;;;;;;;9.90;9.00;;;4.20;65.30;;;;;;5010775;28;20181;-84
2022/01/17 03:49:14;;;;;;;11.10;9.97;;;4.20;66.10;;;;;;5009772;28;20580;-83
2022/01/17 03:51:40;;;;;;;12.73;10.23;;;4.10;66.80;;;;;;5009632;28;20185;-84
2022/01/17 03:54:06;;;;;;;12.37;11.17;;;4.10;68.20;;;;;;5010292;28;20197;-84
2022/01/17 03:56:32;;;;;;;11.77;10.00;;;4.10;69.60;;;;;;5010134;28;20177;-84
2022/01/17 03:58:58;;;;;;;11.80;10.30;;;4.00;68.90;;;;;;5010844;28;20789;-84
2022/01/17 04:01:23;;;;;;;11.67;10.47;;;4.00;69.60;;;;;;5009591;28;20227;-84
2022/01/17 04:03:49;;;;;;;11.83;10.63;;;4.00;70.40;;;;;;5009428;28;20506;-84
2022/01/17 04:06:15;;;;;;;12.80;11.50;;;4.00;71.70;;;;;;5010618;28;20169;-85
2022/01/17 04:08:41;;;;;;;12.20;10.93;;;4.00;72.70;;;;;;5009437;28;20204;-84
2022/01/17 04:11:07;;;;;;;12.23;10.93;;;4.00;73.40;;;;;;5009676;28;20455;-84
2022/01/17 04:13:34;;;;;;;13.87;10.47;;;4.10;73.30;;;;;;5009296;28;20463;-84
2022/01/17 04:16:00;;;;;;;13.80;10.50;;;4.10;72.80;;;;;;5008614;28;20986;-84
2022/01/17 04:18:25;;;;;;;12.53;11.17;;;4.00;73.20;;;;;;5009484;28;20408;-84
2022/01/17 04:20:52;;;;;;;12.70;11.40;;;4.00;74.40;;;;;;5008589;28;20595;-84
2022/01/17 04:23:18;;;;;;;17.43;12.47;;;4.00;75.30;;;;;;5009692;28;20169;-84
2022/01/17 04:25:44;;;;;;;17.40;12.50;;;4.00;75.80;;;;;;5009889;28;20412;-85
2022/01/17 04:28:12;;;;;;;13.90;12.23;;;3.90;76.50;;;;;;5009439;28;20828;-84
2022/01/17 04:30:39;;;;;;;13.60;12.03;;;4.00;76.40;;;;;;5009505;28;20781;-84
2022/01/17 04:33:05;;;;;;;12.77;11.57;;;4.00;76.60;;;;;;5008764;28;20421;-84
2022/01/17 04:35:32;;;;;;;15.87;12.60;;;4.00;77.00;;;;;;5009614;28;20425;-83
2022/01/17 04:38:03;;;;;;;12.20;10.90;;;4.00;77.50;;;;;;5008735;28;20977;-84
2022/01/17 04:40:36;;;;;;;15.33;12.00;;;4.00;77.50;;;;;;5008394;28;21020;-84
2022/01/17 04:43:06;;;;;;;12.40;11.10;;;4.00;77.70;;;;;;5008628;28;20440;-83
2022/01/17 04:45:32;;;;;;;12.13;9.33;;;4.00;77.80;;;;;;5009056;28;20499;-83
2022/01/17 04:47:58;;;;;;;10.63;9.50;;;4.00;78.80;;;;;;5009387;28;20409;-84
2022/01/17 04:50:26;;;;;;;10.17;9.17;;;4.00;78.40;;;;;;5009828;28;20431;-84
2022/01/17 04:52:57;;;;;;;11.40;9.97;;;3.90;77.60;;;;;;5009420;28;20482;-84
2022/01/17 04:55:24;;;;;;;10.40;9.30;;;4.00;76.60;;;;;;5009125;28;20850;-84
2022/01/17 04:57:50;;;;;;;12.50;11.20;;;4.00;76.60;;;;;;5009601;28;20870;-84
2022/01/17 05:00:20;;;;;;;9.70;8.70;;;4.00;78.30;;;;;;5008393;28;20559;-83
2022/01/17 05:02:46;;;;;;;11.83;10.33;;;4.00;78.70;;;;;;5010415;28;20466;-82
2022/01/17 05:05:13;;;;;;;10.47;9.37;;;4.00;78.00;;;;;;4993940;28;20472;-83
2022/01/17 05:07:39;;;;;;;11.37;10.17;;;4.00;79.50;;;;;;5010506;28;20412;-82
2022/01/17 05:10:09;;;;;;;9.90;9.00;;;4.00;79.80;;;;;;5010327;28;20455;-83
2022/01/17 05:12:35;;;;;;;11.00;10.00;;;4.00;78.30;;;;;;5010111;28;20424;-83
2022/01/17 05:15:01;;;;;;;12.43;8.67;;;4.00;78.20;;;;;;5010221;28;20421;-83
2022/01/17 05:19:58;;;;;;;11.10;9.80;;;4.00;78.80;;;;;;5011426;28;20197;-83
2022/01/17 05:22:26;;;;;;;10.70;8.70;;;4.10;79.00;;;;;;5010629;28;20216;-83
2022/01/17 05:24:52;;;;;;;10.47;9.47;;;4.00;78.10;;;;;;5010642;28;20424;-83
2022/01/17 05:27:18;;;;;;;10.10;9.03;;;4.00;77.90;;;;;;5010533;28;20423;-83
2022/01/17 05:29:45;;;;;;;10.20;9.10;;;4.10;78.30;;;;;;5010302;28;20240;-83
2022/01/17 05:32:11;;;;;;;11.20;10.10;;;4.10;78.20;;;;;;5011104;28;20428;-83
2022/01/17 05:34:40;;;;;;;9.47;8.43;;;4.10;79.50;;;;;;5012002;28;20428;-81
2022/01/17 05:37:06;;;;;;;9.67;8.67;;;4.10;77.40;;;;;;5001155;28;20188;-82
2022/01/17 05:39:32;;;;;;;10.47;9.37;;;4.10;78.10;;;;;;5008102;28;20490;-82
2022/01/17 05:41:58;;;;;;;9.43;8.23;;;4.20;78.20;;;;;;5009838;28;20424;-81
2022/01/17 05:44:24;;;;;;;9.60;8.70;;;4.20;78.10;;;;;;5009879;28;20420;-82
2022/01/17 05:46:49;;;;;;;10.30;9.30;;;4.20;78.20;;;;;;5010093;28;20652;-82
2022/01/17 05:49:15;;;;;;;10.93;9.50;;;4.20;78.60;;;;;;5010589;28;20181;-83
2022/01/17 05:51:41;;;;;;;8.73;7.83;;;4.20;78.60;;;;;;5010701;28;20661;-82
2022/01/17 05:54:07;;;;;;;9.07;8.20;;;4.20;78.20;;;;;;5010441;28;20197;-81
2022/01/17 05:56:33;;;;;;;8.87;7.33;;;4.30;76.90;;;;;;5010936;28;20423;-82
2022/01/17 05:58:59;;;;;;;8.87;8.07;;;4.30;76.90;;;;;;5010072;28;20181;-82
2022/01/17 06:01:24;;;;;;;9.63;8.73;;;4.30;76.90;;;;;;5010457;28;20416;-82
2022/01/17 06:03:50;;;;;;;10.00;8.73;;;4.30;77.30;;;;;;5010327;28;20420;-82
2022/01/17 06:06:16;;;;;;;9.30;7.90;;;4.30;76.90;;;;;;5010449;28;20272;-81
2022/01/17 06:08:42;;;;;;;8.17;7.30;;;4.30;76.90;;;;;;5006409;28;20229;-79
2022/01/17 06:11:08;;;;;;;8.60;7.57;;;4.30;76.20;;;;;;5001021;28;20189;-80
2022/01/17 06:13:34;;;;;;;8.20;7.40;;;4.30;76.20;;;;;;5010497;28;20425;-80
2022/01/17 06:16:00;;;;;;;8.10;7.40;;;4.30;76.90;;;;;;5010115;28;20424;-79
2022/01/17 06:18:25;;;;;;;8.50;7.00;;;4.30;75.30;;;;;;5009336;28;20189;-82
2022/01/17 06:20:51;;;;;;;9.23;7.73;;;4.30;76.00;;;;;;5010261;28;20460;-82
2022/01/17 06:23:17;;;;;;;7.80;7.00;;;4.40;76.30;;;;;;5007366;28;20182;-82
2022/01/17 06:25:43;;;;;;;7.57;6.67;;;4.40;76.10;;;;;;4991571;28;20459;-82
2022/01/17 06:28:08;;;;;;;7.40;6.70;;;4.30;75.90;;;;;;5009968;28;20192;-84
2022/01/17 06:30:34;;;;;;;8.57;7.77;;;4.40;75.30;;;;;;5010900;28;20178;-83
2022/01/17 06:33:02;;;;;;;7.90;7.10;;;4.40;74.90;;;;;;5010387;28;20289;-80
2022/01/17 06:35:27;;;;;;;7.80;7.10;;;4.40;74.90;;;;;;5010798;28;20227;-82
2022/01/17 06:37:53;;;;;;;8.30;7.50;;;4.40;75.20;;;;;;5009894;28;20479;-82
2022/01/17 06:40:19;;;;;;;7.53;6.73;;;4.40;74.90;;;;;;5013401;28;20205;-82
2022/01/17 06:42:45;;;;;;;8.67;7.80;;;4.40;75.10;;;;;;5014001;28;20504;-81
2022/01/17 06:45:13;;;;;;;8.70;7.80;;;4.40;74.90;;;;;;5013380;28;20849;-81
2022/01/17 06:47:39;;;;;;;8.87;7.90;;;4.50;74.40;;;;;;5014002;28;20417;-82
2022/01/17 06:50:08;;;;;;;10.70;7.53;;;4.50;75.30;;;;;;5013251;28;20420;-82
2022/01/17 06:52:34;;;;;;;7.80;7.03;;;4.50;75.20;;;;;;5013654;28;20451;-81
2022/01/17 06:55:00;;;;;;;7.20;6.50;;;4.50;74.20;;;;;;5012956;28;20436;-82
2022/01/17 06:57:26;;;;;;;6.20;5.70;;;4.50;73.40;;;;;;5013614;28;20434;-82
2022/01/17 06:59:52;;;;;;;8.17;7.37;;;4.50;73.50;;;;;;5013046;28;20987;-81
2022/01/17 07:02:18;;;;;;;7.00;6.40;;;4.50;73.70;;;;;;5013385;28;20268;-82
2022/01/17 07:04:44;;;;;;;7.40;6.70;;;4.50;73.90;;;;;;5013314;28;20512;-82
2022/01/17 07:07:10;;;;;;;7.83;7.13;;;4.50;73.90;;;;;;5013061;28;20421;-82
2022/01/17 07:09:36;;;;;;;7.20;6.50;;;4.50;73.00;;;;;;5014217;28;20467;-82
2022/01/17 07:12:03;;;;;;;6.23;5.63;;;4.50;73.60;;;;;;5013356;28;20184;-82
2022/01/17 07:14:29;;;;;;;7.53;6.50;;;4.50;74.30;;;;;;4997058;28;20828;-82
2022/01/17 07:16:55;;;;;;;7.17;6.53;;;4.50;74.50;;;;;;5014069;28;20420;-81
2022/01/17 07:19:23;;;;;;;7.67;6.93;;;4.50;74.60;;;;;;5012803;28;20215;-81
2022/01/17 07:21:50;;;;;;;7.47;6.77;;;4.50;74.20;;;;;;5012587;28;20416;-80
2022/01/17 07:24:15;;;;;;;9.20;7.10;;;4.50;74.60;;;;;;5012899;28;20836;-80
2022/01/17 07:26:41;;;;;;;7.83;7.03;;;4.50;74.40;;;;;;5012794;28;20435;-80
2022/01/17 07:29:08;;;;;;;8.97;8.17;;;4.50;74.10;;;;;;5012502;28;20852;-81
2022/01/17 07:31:35;;;;;;;8.20;7.33;;;4.50;74.90;;;;;;5012809;28;20589;-80
2022/01/17 07:34:01;;;;;;;7.10;6.47;;;4.60;75.30;;;;;;5012651;28;20928;-81
2022/01/17 07:36:26;;;;;;;6.10;5.50;;;4.60;74.70;;;;;;5012571;28;20428;-81
2022/01/17 07:38:52;;;;;;;6.40;5.90;;;4.60;73.10;;;;;;5012273;28;20188;-81
2022/01/17 07:41:18;;;;;;;11.00;6.73;;;4.60;73.30;;;;;;5012274;28;20263;-81
2022/01/17 07:43:44;;;;;;;7.50;5.63;;;4.60;74.00;;;;;;5012620;28;20413;-81
2022/01/17 07:46:22;;;;;;;5.53;4.73;;;4.70;74.30;;;;;;5012243;28;20428;-81
2022/01/17 07:49:03;;;;;;;8.83;7.00;;;4.70;73.80;;;;;;5012352;28;20287;-80
2022/01/17 07:51:30;;;;;;;7.13;6.53;;;4.70;72.80;;;;;;5010941;28;20432;-80
2022/01/17 07:53:57;;;;;;;7.20;6.37;;;4.70;73.70;;;;;;5012087;28;20490;-81
2022/01/17 07:56:23;;;;;;;6.33;5.73;;;4.70;74.30;;;;;;5012518;28;20420;-80
2022/01/17 07:58:49;;;;;;;7.13;6.53;;;4.70;74.00;;;;;;5011788;28;20424;-80
2022/01/17 08:01:15;;;;;;;6.03;5.40;;;4.70;74.30;;;;;;5012193;28;20424;-79
2022/01/17 08:03:41;;;;;;;6.73;6.13;;;4.70;73.20;;;;;;5011976;28;20573;-81
2022/01/17 08:06:07;;;;;;;4.80;4.30;;;4.70;72.70;;;;;;5012089;28;20533;-80
2022/01/17 08:08:33;;;;;;;6.70;6.20;;;4.80;72.40;;;;;;5011903;28;20428;-80
2022/01/17 08:10:59;;;;;;;6.23;5.70;;;4.80;73.00;;;;;;5011651;28;20487;-79
2022/01/17 08:13:25;;;;;;;9.67;4.00;;;4.80;70.80;;;;;;5011766;28;20420;-79
2022/01/17 08:15:50;;;;;;;5.13;4.60;;;4.80;72.40;;;;;;5011757;28;20830;-79
2022/01/17 08:18:16;;;;;;;5.67;5.10;;;4.70;72.40;;;;;;5011866;28;20231;-79
2022/01/17 08:20:42;;;;;;;4.97;4.57;;;4.80;72.40;;;;;;5011431;28;20209;-80
2022/01/17 08:23:09;;;;;;;5.50;5.00;;;4.80;71.50;;;;;;5012934;28;20470;-80
2022/01/17 08:25:35;;;;;;;5.80;5.30;;;4.80;71.00;;;;;;5011806;28;20448;-78
2022/01/17 08:28:00;;;;;;;6.60;6.00;;;4.80;71.80;;;;;;5012004;28;20864;-79
2022/01/17 08:30:26;;;;;;;6.10;5.50;;;4.80;71.30;;;;;;5011532;28;20448;-79
2022/01/17 08:32:52;;;;;;;5.57;5.07;;;4.80;71.40;;;;;;5011363;28;20630;-79
2022/01/17 08:35:22;;;;;;;5.87;5.40;;;4.80;72.40;;;;;;5011678;28;20420;-78
2022/01/17 08:37:48;;;;;;;6.20;5.70;;;4.90;72.50;;;;;;5011313;28;20514;-79
2022/01/17 08:40:15;;;;;;;6.23;5.57;;;5.00;72.40;;;;;;5011261;28;20507;-80
2022/01/17 08:42:41;;;;;;;6.50;5.90;;;4.90;71.40;;;;;;5011399;28;20182;-80
2022/01/17 08:45:09;;;;;;;5.30;3.60;;;5.00;71.30;;;;;;5011442;28;20424;-81
2022/01/17 08:47:35;;;;;;;5.27;4.77;;;4.90;71.30;;;;;;5011395;28;20469;-81
2022/01/17 08:50:03;;;;;;;5.90;5.40;;;4.90;70.30;;;;;;5012240;28;20420;-80
2022/01/17 08:52:28;;;;;;;5.90;5.37;;;5.00;70.90;;;;;;5011323;28;20420;-80
2022/01/17 08:54:54;;;;;;;5.53;3.97;;;4.90;69.60;;;;;;5011207;28;20428;-80
2022/01/17 08:57:20;;;;;;;5.13;4.63;;;4.90;70.70;;;;;;5011387;28;20181;-79
2022/01/17 08:59:46;;;;;;;6.80;5.10;;;4.90;71.30;;;;;;5011036;28;20204;-81
2022/01/17 09:02:13;;;;;;;6.33;3.67;;;5.00;70.00;;;;;;5010449;28;20177;-80
2022/01/17 09:04:41;;;;;;;6.23;3.17;;;5.00;69.10;;;;;;5011134;28;20457;-80
2022/01/17 09:07:11;;;;;;;7.97;5.60;;;5.00;67.70;;;;;;5010879;28;20435;-80
2022/01/17 09:09:38;;;;;;;5.83;5.30;;;5.00;68.80;;;;;;5010931;28;20420;-79
2022/01/17 09:12:07;;;;;;;5.30;4.13;;;5.10;69.00;;;;;;5010894;28;20909;-80
2022/01/17 09:14:33;;;;;;;6.80;5.70;;;5.00;69.40;;;;;;5010869;28;20424;-80
2022/01/17 09:16:59;;;;;;;5.20;4.70;;;5.10;69.00;;;;;;5010696;28;20428;-80
2022/01/17 09:19:27;;;;;;;5.83;5.23;;;5.20;69.40;;;;;;5011035;28;20467;-80
2022/01/17 09:21:53;;;;;;;4.97;4.17;;;5.30;69.60;;;;;;5010559;28;20228;-81
2022/01/17 09:24:19;;;;;;;6.87;4.60;;;5.30;68.30;;;;;;5011029;28;20826;-81
2022/01/17 09:26:45;;;;;;;4.83;4.43;;;5.30;68.10;;;;;;5010749;28;20421;-82
2022/01/17 09:29:11;;;;;;;4.90;4.50;;;5.40;68.00;;;;;;5010404;28;20609;-80
2022/01/17 09:31:37;;;;;;;4.10;2.90;;;5.50;68.10;;;;;;5010576;28;20503;-82
2022/01/17 09:34:02;;;;;;;3.63;2.90;;;5.50;67.40;;;;;;5010393;28;20920;-80
2022/01/17 09:36:31;;;;;;;4.37;3.80;;;5.50;65.50;;;;;;5012071;28;20495;-80
2022/01/17 09:38:57;;;;;;;3.13;2.93;;;5.60;66.10;;;;;;5010067;28;20228;-80
2022/01/17 09:41:23;;;;;;;1.90;1.77;;;5.60;64.40;;;;;;5010907;28;20507;-80
2022/01/17 09:43:50;;;;;;;5.47;2.60;;;5.70;63.10;;;;;;5010301;28;20188;-80
2022/01/17 09:46:18;;;;;;;2.10;1.87;;;5.70;62.50;;;;;;5011284;28;20428;-80
2022/01/17 09:48:48;;;;;;;3.13;2.83;;;5.90;63.30;;;;;;5010792;28;20975;-80
2022/01/17 09:51:20;;;;;;;2.00;1.87;;;5.90;62.30;;;;;;5011015;28;20519;-80
2022/01/17 09:53:51;;;;;;;2.00;1.87;;;5.90;63.20;;;;;;5010668;28;20779;-80
2022/01/17 09:56:20;;;;;;;3.30;2.47;;;5.90;64.00;;;;;;5010849;28;20858;-80
2022/01/17 09:58:45;;;;;;;2.30;1.67;;;6.00;63.80;;;;;;5011896;28;20782;-81
2022/01/17 10:01:11;;;;;;;1.90;1.77;;;5.90;63.40;;;;;;5010306;28;20539;-80
2022/01/17 10:03:38;;;;;;;2.53;2.33;;;6.00;64.00;;;;;;5010751;28;20654;-79
2022/01/17 10:06:04;;;;;;;4.40;2.60;;;6.10;62.40;;;;;;5010220;28;20235;-82
2022/01/17 10:08:30;;;;;;;1.73;1.63;;;6.20;63.40;;;;;;5010334;28;20452;-83
2022/01/17 10:10:58;;;;;;;1.80;1.67;;;6.20;62.40;;;;;;5011376;28;21015;-82
2022/01/17 10:13:30;;;;;;;1.50;1.40;;;6.20;59.40;;;;;;5010834;28;20181;-82
2022/01/17 10:16:09;;;;;;;1.77;1.67;;;6.20;58.70;;;;;;5015456;28;20444;-82
2022/01/17 10:18:58;;;;;;;1.60;1.50;;;6.20;59.60;;;;;;5014858;28;20531;-86
2022/01/17 10:21:34;;;;;;;1.90;1.47;;;6.20;60.00;;;;;;5014556;28;20448;-83
2022/01/17 10:29:42;;;;;;;1.67;1.57;;;6.30;58.00;;;;;;5003992;28;20430;-81
2022/01/17 10:35:09;;;;;;;2.10;1.90;;;6.20;58.80;;;;;;5015332;28;20770;-83
2022/01/17 10:37:35;;;;;;;1.60;1.43;;;6.20;58.80;;;;;;5014427;28;20419;-83
2022/01/17 10:40:04;;;;;;;2.03;1.80;;;6.30;59.50;;;;;;5013367;28;20987;-83
2022/01/17 10:42:30;;;;;;;1.50;1.40;;;6.30;58.80;;;;;;5014010;28;20771;-82
2022/01/17 10:45:16;;;;;;;1.77;1.20;;;6.40;58.90;;;;;;5013699;28;20420;-84
2022/01/17 10:47:43;;;;;;;1.63;1.53;;;6.40;57.80;;;;;;5013622;28;20181;-83
2022/01/17 10:50:26;;;;;;;4.30;1.70;;;6.40;58.00;;;;;;5013685;28;20539;-83
2022/01/17 10:53:01;;;;;;;3.13;2.07;;;6.40;57.60;;;;;;5013406;28;20439;-83
2022/01/17 10:55:30;;;;;;;2.33;2.13;;;6.40;58.00;;;;;;5015134;28;20457;-84
2022/01/17 10:58:11;;;;;;;1.90;1.80;;;6.30;57.70;;;;;;5013365;28;20506;-84
2022/01/17 11:00:43;;;;;;;2.73;2.47;;;6.40;57.10;;;;;;5013189;28;20452;-83
2022/01/17 11:03:12;;;;;;;2.47;2.27;;;6.40;57.60;;;;;;5013303;28;20417;-83
2022/01/17 11:05:39;;;;;;;4.67;3.50;;;6.30;58.30;;;;;;5013667;28;20424;-83
2022/01/17 11:08:06;;;;;;;5.43;4.20;;;6.10;58.60;;;;;;5013298;28;20412;-82
2022/01/17 11:10:47;;;;;;;4.10;3.10;;;6.10;59.60;;;;;;5013574;28;20420;-83
2022/01/17 11:13:18;;;;;;;3.40;3.10;;;5.90;59.50;;;;;;5013440;28;20416;-82
2022/01/17 11:15:46;;;;;;;4.60;3.80;;;5.90;61.60;;;;;;5013547;28;20416;-84
2022/01/17 11:18:22;;;;;;;4.53;3.93;;;6.00;61.30;;;;;;5013010;28;20420;-83
2022/01/17 11:20:51;;;;;;;5.37;4.50;;;6.00;60.10;;;;;;5014271;28;20462;-83
2022/01/17 11:23:18;;;;;;;7.13;6.53;;;6.10;60.40;;;;;;5012855;28;20408;-84
2022/01/17 11:25:45;;;;;;;5.43;4.97;;;6.10;60.30;;;;;;5013611;28;20863;-86
2022/01/17 11:28:14;;;;;;;10.03;7.93;;;6.10;59.50;;;;;;5015095;28;20440;-85
2022/01/17 11:30:41;;;;;;;6.27;5.30;;;6.10;60.60;;;;;;5014591;28;20491;-86
2022/01/17 11:33:09;;;;;;;6.67;6.07;;;6.00;60.30;;;;;;5013905;28;20420;-85
2022/01/17 11:35:38;;;;;;;5.70;5.10;;;6.00;60.90;;;;;;5014438;28;20427;-86
2022/01/17 11:38:04;;;;;;;6.60;6.00;;;5.80;61.60;;;;;;5014221;28;20420;-86
2022/01/17 11:40:38;;;;;;;6.03;5.53;;;5.80;62.60;;;;;;5014792;28;20546;-85
2022/01/17 11:43:22;;;;;;;5.30;3.87;;;5.70;63.20;;;;;;5014419;28;20416;-85
2022/01/17 11:45:53;;;;;;;7.40;5.00;;;5.60;65.00;;;;;;5014253;28;20732;-86
2022/01/17 11:48:30;;;;;;;6.77;4.97;;;5.60;65.50;;;;;;5015350;28;20428;-88
2022/01/17 11:50:59;;;;;;;7.37;6.67;;;5.50;68.10;;;;;;5014532;28;20482;-85
2022/01/17 11:53:26;;;;;;;20.93;17.10;;;5.60;67.40;;;;;;5014488;28;20436;-86
2022/01/17 11:55:52;;;;;;;18.63;13.67;;;5.50;66.80;;;;;;5014267;28;20983;-85
2022/01/17 11:58:39;;;;;;;17.70;7.07;;;5.50;65.80;;;;;;5014033;28;20420;-87
2022/01/17 12:01:05;;;;;;;6.17;5.57;;;5.50;66.40;;;;;;5013777;28;20205;-86
2022/01/17 12:03:41;;;;;;;6.73;6.13;;;5.60;66.60;;;;;;5013415;28;20443;-88
2022/01/17 12:06:25;;;;;;;6.23;5.63;;;5.60;66.40;;;;;;5014143;28;20177;-86
2022/01/17 12:09:27;;;;;;;5.07;4.50;;;5.60;66.30;;;;;;5014016;28;20408;-86
2022/01/17 12:11:56;;;;;;;5.30;4.90;;;5.70;66.40;;;;;;5015265;28;20422;-86
2022/01/17 12:14:22;;;;;;;10.50;9.60;;;5.70;66.20;;;;;;5015765;28;20428;-87
2022/01/17 12:16:48;;;;;;;5.90;5.40;;;5.80;65.60;;;;;;5015460;28;20474;-85
2022/01/17 12:19:14;;;;;;;6.00;5.40;;;5.90;65.90;;;;;;5013222;28;20512;-85
2022/01/17 12:21:53;;;;;;;4.70;4.30;;;5.90;66.40;;;;;;5013042;28;20519;-86
2022/01/17 12:24:22;;;;;;;2.97;2.77;;;6.00;64.00;;;;;;5012635;28;20209;-86
2022/01/17 12:27:03;;;;;;;3.57;3.10;;;5.90;64.30;;;;;;5012218;28;20921;-85
2022/01/17 12:29:52;;;;;;;3.57;3.07;;;6.00;63.00;;;;;;5012103;28;20480;-85
2022/01/17 12:32:24;;;;;;;3.33;3.03;;;5.90;62.90;;;;;;5013106;28;20434;-86
2022/01/17 12:34:51;;;;;;;2.73;2.43;;;6.00;63.60;;;;;;5013532;28;20432;-87
2022/01/17 12:37:33;;;;;;;2.80;2.30;;;6.00;62.50;;;;;;5011822;28;20424;-86
2022/01/17 12:40:19;;;;;;;4.60;3.20;;;6.00;61.90;;;;;;5012394;28;20534;-86
2022/01/17 12:42:50;;;;;;;3.23;2.63;;;6.00;60.50;;;;;;5012086;28;20446;-85
2022/01/17 12:45:25;;;;;;;2.80;2.57;;;6.00;60.90;;;;;;5012081;28;20424;-82
2022/01/17 12:47:52;;;;;;;2.77;2.50;;;6.00;60.60;;;;;;5010955;28;20428;-82
2022/01/17 12:50:23;;;;;;;4.10;3.40;;;6.10;58.10;;;;;;5011243;28;20456;-82
2022/01/17 12:52:53;;;;;;;4.23;3.20;;;6.10;59.50;;;;;;5010628;28;20448;-82
2022/01/17 12:55:19;;;;;;;4.33;3.10;;;6.10;60.60;;;;;;5011435;28;20423;-83
2022/01/17 12:57:46;;;;;;;4.60;3.40;;;6.10;59.60;;;;;;5011183;28;20454;-82
2022/01/17 13:00:23;;;;;;;3.50;2.70;;;6.00;60.30;;;;;;5011066;28;20468;-83
2022/01/17 13:02:52;;;;;;;4.10;3.60;;;6.10;58.10;;;;;;5011404;28;20423;-82
2022/01/17 13:05:23;;;;;;;5.20;4.30;;;6.10;58.60;;;;;;5012260;28;20804;-82
2022/01/17 13:07:49;;;;;;;2.70;2.50;;;6.00;58.30;;;;;;5010766;28;20507;-80
2022/01/17 13:10:16;;;;;;;3.87;2.80;;;6.10;58.60;;;;;;5012073;28;20424;-82
2022/01/17 13:12:42;;;;;;;2.60;2.40;;;6.10;58.30;;;;;;5011701;28;20421;-83
2022/01/17 13:15:10;;;;;;;3.50;2.50;;;6.10;57.10;;;;;;5010964;28;20486;-83
2022/01/17 13:17:36;;;;;;;3.90;2.60;;;6.10;58.00;;;;;;5012337;28;20416;-84
2022/01/17 13:20:04;;;;;;;3.23;2.53;;;6.20;58.30;;;;;;5010558;28;20483;-84